createdAt,value
2023-04-20T00:02:38.542Z,89.121
2023-04-20T00:03:37.936Z,89.119
2023-04-20T00:06:37.483Z,89.428
2023-04-20T00:07:38.369Z,89.253
2023-04-20T00:08:38.106Z,89.371
2023-04-20T00:09:37.840Z,89.315
2023-04-20T00:12:38.367Z,89.710
2023-04-20T00:13:38.160Z,89.743
2023-04-20T00:14:37.888Z,90.376
2023-04-20T00:16:37.510Z,89.975
2023-04-20T00:17:38.586Z,89.941
2023-04-20T00:18:37.514Z,89.569
2023-04-20T00:19:38.391Z,90.239
2023-04-20T00:20:38.206Z,90.294
2023-04-20T00:21:38.036Z,90.801
2023-04-20T00:23:37.573Z,90.223
2023-04-20T00:24:38.406Z,90.645
2023-04-20T00:25:38.236Z,90.000
2023-04-20T00:26:38.027Z,90.305
2023-04-20T00:27:38.090Z,89.447
2023-04-20T00:28:37.794Z,89.901
2023-04-20T00:30:37.515Z,89.674
2023-04-20T00:31:38.324Z,90.029
2023-04-20T00:32:38.215Z,90.708
2023-04-20T00:33:37.999Z,90.128
2023-04-20T00:34:37.742Z,90.502
2023-04-20T00:35:37.619Z,90.321
2023-04-20T00:36:37.366Z,89.640
2023-04-20T00:37:38.155Z,89.783
2023-04-20T00:38:37.898Z,90.910
2023-04-20T00:39:38.001Z,90.826
2023-04-20T00:40:37.811Z,91.332
2023-04-20T00:42:37.463Z,90.469
2023-04-20T00:43:38.319Z,90.307
2023-04-20T00:44:38.197Z,90.290
2023-04-20T00:45:38.000Z,90.094
2023-04-20T00:46:38.112Z,90.368
2023-04-20T00:49:38.296Z,89.548
2023-04-20T00:50:38.047Z,88.987
2023-04-20T00:52:37.792Z,89.357
2023-04-20T00:53:37.549Z,89.619
2023-04-20T00:54:38.306Z,88.863
2023-04-20T00:55:38.106Z,89.722
2023-04-20T00:56:37.977Z,89.375
2023-04-20T00:58:37.525Z,88.995
2023-04-20T00:59:38.313Z,89.148
2023-04-20T01:00:38.081Z,89.132
2023-04-20T01:02:38.173Z,89.706
2023-04-20T01:03:38.016Z,90.212
2023-04-20T01:04:37.766Z,89.876
2023-04-20T01:05:37.634Z,89.937
2023-04-20T01:06:37.464Z,90.412
2023-04-20T01:07:38.243Z,90.427
2023-04-20T01:08:37.943Z,90.557
2023-04-20T01:09:38.036Z,90.319
2023-04-20T01:10:37.823Z,90.527
2023-04-20T01:12:37.430Z,90.477
2023-04-20T01:13:38.230Z,90.641
2023-04-20T01:14:38.063Z,91.042
2023-04-20T01:15:37.832Z,91.204
2023-04-20T01:16:38.113Z,91.559
2023-04-20T01:18:37.749Z,91.086
2023-04-20T01:19:37.737Z,91.269
2023-04-20T01:20:37.471Z,91.374
2023-04-20T01:21:38.278Z,91.435
2023-04-20T01:22:38.088Z,91.139
2023-04-20T01:23:37.805Z,91.145
2023-04-20T01:25:37.409Z,91.253
2023-04-20T01:26:38.209Z,91.194
2023-04-20T01:27:37.995Z,90.895
2023-04-20T01:28:37.708Z,90.880
2023-04-20T01:29:38.018Z,90.740
2023-04-20T01:30:37.753Z,90.557
2023-04-20T01:32:37.681Z,90.307
2023-04-20T01:33:37.924Z,90.206
2023-04-20T01:34:38.075Z,90.029
2023-04-20T01:35:37.905Z,89.939
2023-04-20T01:36:37.739Z,89.462
2023-04-20T01:38:38.308Z,89.163
2023-04-20T01:39:38.110Z,89.193
2023-04-20T01:41:37.863Z,89.012
2023-04-20T01:42:37.691Z,89.174
2023-04-20T01:43:38.406Z,89.396
2023-04-20T01:44:38.263Z,89.188
2023-04-20T01:45:37.994Z,88.902
2023-04-20T01:47:37.767Z,89.813
2023-04-20T01:48:37.674Z,89.439
2023-04-20T01:49:38.578Z,89.867
2023-04-20T01:50:38.355Z,89.474
2023-04-20T01:51:38.116Z,89.857
2023-04-20T01:52:37.899Z,90.483
2023-04-20T01:54:37.467Z,90.075
2023-04-20T01:55:38.932Z,90.651
2023-04-20T01:56:37.713Z,90.771
2023-04-20T01:57:37.406Z,90.479
2023-04-20T01:58:38.216Z,89.987
2023-04-20T01:59:37.960Z,89.954
2023-04-20T02:01:37.583Z,90.326
2023-04-20T02:02:38.783Z,90.185
2023-04-20T02:03:38.432Z,90.317
2023-04-20T02:04:37.995Z,90.223
2023-04-20T02:06:37.660Z,89.661
2023-04-20T02:07:38.392Z,89.354
2023-04-20T02:08:38.199Z,89.123
2023-04-20T02:09:38.412Z,88.821
2023-04-20T02:10:38.154Z,88.831
2023-04-20T02:12:37.684Z,89.184
2023-04-20T02:13:37.481Z,89.079
2023-04-20T02:14:38.244Z,89.035
2023-04-20T02:15:38.023Z,88.591
2023-04-20T02:16:37.930Z,88.232
2023-04-20T02:17:37.802Z,88.575
2023-04-20T02:20:38.225Z,89.415
2023-04-20T02:21:38.069Z,89.718
2023-04-20T02:22:37.819Z,89.727
2023-04-20T02:24:37.572Z,89.781
2023-04-20T02:25:38.280Z,89.823
2023-04-20T02:26:38.061Z,89.705
2023-04-20T02:28:37.622Z,89.274
2023-04-20T02:29:38.851Z,89.130
2023-04-20T02:30:37.588Z,89.191
2023-04-20T02:31:37.562Z,89.296
2023-04-20T02:32:38.590Z,89.598
2023-04-20T02:33:37.551Z,89.546
2023-04-20T02:34:38.357Z,89.443
2023-04-20T02:35:38.238Z,89.813
2023-04-20T02:36:38.204Z,89.838
2023-04-20T02:38:37.781Z,90.000
2023-04-20T02:39:38.161Z,90.201
2023-04-20T02:40:37.947Z,90.412
2023-04-20T02:42:37.670Z,90.424
2023-04-20T02:43:38.423Z,90.387
2023-04-20T02:44:38.188Z,90.353
2023-04-20T02:45:37.956Z,90.492
2023-04-20T02:47:37.964Z,90.508
2023-04-20T02:48:37.856Z,90.645
2023-04-20T02:49:37.869Z,90.429
2023-04-20T02:50:37.637Z,90.309
2023-04-20T02:51:38.341Z,90.685
2023-04-20T02:53:37.848Z,91.353
2023-04-20T02:54:37.580Z,91.232
2023-04-20T02:55:38.401Z,91.553
2023-04-20T02:56:38.136Z,91.646
2023-04-20T02:57:37.732Z,91.253
2023-04-20T02:59:38.456Z,91.879
2023-04-20T03:00:38.236Z,91.984
2023-04-20T03:01:38.318Z,91.551
2023-04-20T03:02:37.889Z,91.492
2023-04-20T03:03:38.622Z,91.980
2023-04-20T03:05:37.660Z,91.461
2023-04-20T03:06:40.155Z,91.511
2023-04-20T03:07:37.954Z,91.028
2023-04-20T03:08:37.750Z,91.017
2023-04-20T03:09:37.816Z,90.950
2023-04-20T03:10:37.608Z,90.904
2023-04-20T03:12:38.335Z,91.082
2023-04-20T03:13:38.116Z,91.278
2023-04-20T03:15:37.633Z,92.091
2023-04-20T03:16:37.495Z,92.228
2023-04-20T03:17:38.512Z,92.121
2023-04-20T03:18:38.368Z,92.192
2023-04-20T03:20:38.009Z,92.493
2023-04-20T03:21:37.836Z,92.720
2023-04-20T03:22:37.583Z,92.831
2023-04-20T03:23:38.365Z,92.970
2023-04-20T03:24:38.121Z,93.401
2023-04-20T03:25:37.387Z,93.435
2023-04-20T03:26:38.242Z,93.779
2023-04-20T03:27:38.039Z,93.664
2023-04-20T03:28:37.743Z,93.798
2023-04-20T03:29:37.795Z,93.714
2023-04-20T03:30:37.547Z,93.741
2023-04-20T03:31:38.347Z,93.628
2023-04-20T03:32:38.541Z,93.763
2023-04-20T03:34:38.406Z,93.760
2023-04-20T03:35:38.183Z,93.954
2023-04-20T03:36:37.988Z,93.912
2023-04-20T03:39:38.578Z,94.063
2023-04-20T03:40:37.416Z,93.973
2023-04-20T03:41:38.172Z,93.887
2023-04-20T03:42:38.041Z,93.983
2023-04-20T03:44:37.577Z,93.899
2023-04-20T03:45:38.471Z,93.496
2023-04-20T03:46:37.516Z,94.036
2023-04-20T03:47:38.470Z,93.950
2023-04-20T03:48:37.720Z,93.762
2023-04-20T03:49:37.951Z,93.437
2023-04-20T03:50:37.772Z,93.460
2023-04-20T03:53:39.511Z,94.256
2023-04-20T03:54:38.342Z,94.181
2023-04-20T03:55:38.140Z,94.151
2023-04-20T03:56:37.864Z,94.008
2023-04-20T03:57:37.624Z,93.479
2023-04-20T03:58:38.339Z,93.687
2023-04-20T03:59:38.048Z,93.548
2023-04-20T04:01:37.735Z,93.207
2023-04-20T04:02:39.797Z,93.496
2023-04-20T04:05:38.001Z,93.762
2023-04-20T04:06:37.727Z,94.046
2023-04-20T04:07:37.467Z,94.000
2023-04-20T04:08:38.241Z,93.674
2023-04-20T04:09:38.243Z,93.857
2023-04-20T04:11:37.786Z,93.897
2023-04-20T04:12:37.509Z,93.804
2023-04-20T04:13:38.324Z,93.632
2023-04-20T04:14:38.064Z,93.638
2023-04-20T04:16:37.985Z,93.496
2023-04-20T04:18:37.933Z,93.855
2023-04-20T04:19:38.005Z,93.773
2023-04-20T04:20:37.725Z,93.445
2023-04-20T04:22:38.292Z,93.580
2023-04-20T04:23:38.115Z,93.706
2023-04-20T04:24:37.832Z,93.449
2023-04-20T04:27:38.285Z,94.126
2023-04-20T04:28:38.060Z,94.305
2023-04-20T04:29:38.148Z,94.423
2023-04-20T04:30:37.896Z,94.320
2023-04-20T04:32:37.878Z,94.061
2023-04-20T04:33:37.775Z,94.551
2023-04-20T04:36:37.532Z,94.553
2023-04-20T04:37:38.337Z,94.305
2023-04-20T04:38:38.176Z,93.905
2023-04-20T04:39:38.265Z,93.758
2023-04-20T04:40:38.138Z,93.376
2023-04-20T04:42:37.836Z,92.880
2023-04-20T04:43:37.637Z,92.554
2023-04-20T04:44:38.369Z,92.177
2023-04-20T04:45:38.134Z,91.877
2023-04-20T04:46:38.070Z,92.114
2023-04-20T04:48:37.837Z,91.341
2023-04-20T04:49:37.874Z,91.450
2023-04-20T04:50:37.571Z,91.145
2023-04-20T04:51:38.327Z,90.929
2023-04-20T04:54:37.875Z,90.878
2023-04-20T04:56:37.449Z,91.023
2023-04-20T04:57:38.217Z,90.422
2023-04-20T04:58:38.032Z,90.536
2023-04-20T04:59:37.944Z,90.490
2023-04-20T05:01:37.763Z,90.456
2023-04-20T05:02:38.151Z,90.571
2023-04-20T05:03:38.046Z,91.024
2023-04-20T05:04:38.583Z,91.536
2023-04-20T05:05:37.720Z,91.726
2023-04-20T05:06:37.447Z,92.239
2023-04-20T05:07:38.292Z,91.927
2023-04-20T05:08:38.173Z,91.456
2023-04-20T05:09:38.651Z,91.385
2023-04-20T05:10:37.715Z,92.129
2023-04-20T05:11:37.474Z,92.219
2023-04-20T05:12:38.309Z,92.573
2023-04-20T05:13:38.126Z,92.199
2023-04-20T05:16:37.563Z,88.667
2023-04-20T05:17:38.584Z,87.269
2023-04-20T05:18:38.668Z,86.527
2023-04-20T05:19:38.564Z,85.989
2023-04-20T05:20:39.412Z,85.272
2023-04-20T05:21:39.181Z,84.503
2023-04-20T05:22:38.995Z,83.950
2023-04-20T05:24:38.773Z,83.038
2023-04-20T05:25:38.547Z,82.272
2023-04-20T05:26:39.408Z,82.716
2023-04-20T05:27:39.228Z,81.625
2023-04-20T05:28:38.948Z,80.301
2023-04-20T05:32:38.596Z,78.026
2023-04-20T05:33:38.523Z,76.601
2023-04-20T05:34:39.292Z,78.007
2023-04-20T05:35:39.077Z,78.411
2023-04-20T05:37:38.697Z,79.264
2023-04-20T05:38:38.445Z,78.834
2023-04-20T05:39:39.495Z,77.843
2023-04-20T05:40:39.222Z,78.440
2023-04-20T05:42:38.795Z,78.514
2023-04-20T05:43:38.585Z,77.671
2023-04-20T05:44:39.372Z,77.661
2023-04-20T05:45:39.124Z,77.440
2023-04-20T05:47:39.000Z,77.461
2023-04-20T05:48:39.003Z,76.282
2023-04-20T05:49:38.876Z,77.509
2023-04-20T05:50:38.612Z,74.428
2023-04-20T05:51:38.555Z,74.428
2023-04-20T05:52:39.444Z,75.935
2023-04-20T05:53:39.330Z,73.994
2023-04-20T05:54:39.111Z,74.219
2023-04-20T05:56:38.717Z,73.870
2023-04-20T05:57:38.480Z,73.953
2023-04-20T05:58:39.246Z,73.042
2023-04-20T05:59:39.019Z,72.607
2023-04-20T06:00:38.892Z,72.511
2023-04-20T06:02:38.972Z,74.402
2023-04-20T06:03:39.111Z,71.861
2023-04-20T06:04:39.984Z,72.401
2023-04-20T06:05:39.138Z,71.138
2023-04-20T06:07:38.694Z,71.508
2023-04-20T06:08:38.451Z,71.193
2023-04-20T06:09:39.211Z,73.025
2023-04-20T06:10:39.032Z,71.226
2023-04-20T06:12:38.591Z,72.395
2023-04-20T06:13:39.393Z,71.865
2023-04-20T06:14:39.144Z,69.673
2023-04-20T06:15:38.965Z,69.170
2023-04-20T06:16:39.076Z,70.173
2023-04-20T06:17:39.093Z,71.085
2023-04-20T06:18:39.270Z,69.933
2023-04-20T06:19:39.048Z,69.969
2023-04-20T06:21:38.572Z,68.853
2023-04-20T06:22:39.347Z,69.982
2023-04-20T06:23:39.106Z,70.215
2023-04-20T06:24:38.857Z,69.397
2023-04-20T06:25:38.631Z,69.376
2023-04-20T06:26:39.396Z,67.960
2023-04-20T06:27:39.201Z,68.863
2023-04-20T06:29:39.087Z,70.112
2023-04-20T06:30:38.840Z,70.127
2023-04-20T06:31:38.935Z,70.513
2023-04-20T06:32:39.023Z,70.837
2023-04-20T06:33:38.697Z,70.139
2023-04-20T06:34:38.606Z,70.045
2023-04-20T06:35:38.428Z,69.649
2023-04-20T06:36:39.229Z,68.626
2023-04-20T06:37:38.928Z,69.267
2023-04-20T06:39:38.985Z,68.670
2023-04-20T06:40:38.782Z,69.122
2023-04-20T06:42:38.513Z,68.086
2023-04-20T06:43:39.341Z,68.903
2023-04-20T06:44:39.176Z,69.536
2023-04-20T06:45:39.025Z,68.241
2023-04-20T06:46:38.998Z,68.266
2023-04-20T06:47:39.455Z,68.569
2023-04-20T06:48:38.786Z,67.806
2023-04-20T06:49:38.858Z,67.976
2023-04-20T06:50:38.672Z,67.751
2023-04-20T06:53:39.033Z,66.496
2023-04-20T06:54:38.887Z,66.457
2023-04-20T06:55:38.680Z,66.133
2023-04-20T06:56:38.545Z,65.069
2023-04-20T06:57:39.402Z,66.139
2023-04-20T06:58:39.194Z,66.475
2023-04-20T06:59:39.393Z,67.945
2023-04-20T07:00:39.263Z,67.472
2023-04-20T07:04:38.974Z,67.760
2023-04-20T07:05:39.117Z,67.188
2023-04-20T07:06:39.112Z,66.629
2023-04-20T07:07:39.212Z,66.381
2023-04-20T07:08:38.990Z,66.721
2023-04-20T07:09:38.958Z,67.053
2023-04-20T07:10:38.832Z,66.610
2023-04-20T07:11:38.660Z,66.524
2023-04-20T07:13:39.463Z,66.692
2023-04-20T07:14:39.230Z,67.108
2023-04-20T07:17:39.568Z,66.253
2023-04-20T07:18:38.566Z,65.881
2023-04-20T07:19:39.718Z,67.243
2023-04-20T07:20:38.673Z,67.548
2023-04-20T07:22:39.313Z,67.562
2023-04-20T07:23:39.226Z,66.492
2023-04-20T07:24:39.018Z,65.017
2023-04-20T07:26:38.642Z,64.771
2023-04-20T07:27:38.718Z,65.731
2023-04-20T07:28:38.516Z,65.633
2023-04-20T07:29:39.660Z,65.351
2023-04-20T07:30:39.438Z,66.112
2023-04-20T07:31:39.257Z,64.991
2023-04-20T07:32:39.422Z,64.495
2023-04-20T07:33:38.551Z,64.979
2023-04-20T07:34:39.355Z,63.951
2023-04-20T07:35:39.177Z,63.806
2023-04-20T07:37:38.752Z,62.509
2023-04-20T07:38:38.505Z,62.479
2023-04-20T07:39:39.408Z,61.744
2023-04-20T07:40:39.432Z,61.203
2023-04-20T07:41:38.439Z,61.546
2023-04-20T07:42:39.302Z,60.770
2023-04-20T07:43:39.120Z,60.976
2023-04-20T07:45:38.744Z,60.039
2023-04-20T07:46:39.188Z,60.997
2023-04-20T07:47:39.573Z,59.187
2023-04-20T07:48:38.704Z,59.667
2023-04-20T07:49:38.811Z,59.728
2023-04-20T07:50:38.664Z,60.276
2023-04-20T07:52:38.867Z,59.499
2023-04-20T07:53:38.685Z,59.875
2023-04-20T07:54:38.464Z,60.266
2023-04-20T07:55:39.464Z,59.770
2023-04-20T07:56:39.278Z,60.320
2023-04-20T07:57:39.175Z,60.341
2023-04-20T07:59:38.911Z,59.238
2023-04-20T08:00:38.839Z,60.190
2023-04-20T08:02:39.617Z,60.621
2023-04-20T08:03:39.774Z,59.459
2023-04-20T08:04:39.061Z,59.438
2023-04-20T08:05:39.606Z,57.895
2023-04-20T08:06:38.648Z,58.071
2023-04-20T08:07:38.494Z,58.178
2023-04-20T08:08:39.385Z,57.525
2023-04-20T08:09:39.341Z,58.397
2023-04-20T08:10:39.127Z,57.708
2023-04-20T08:12:38.917Z,57.558
2023-04-20T08:13:40.081Z,56.142
2023-04-20T08:14:40.066Z,57.256
2023-04-20T08:15:39.083Z,57.672
2023-04-20T08:16:40.045Z,57.142
2023-04-20T08:17:38.954Z,55.625
2023-04-20T08:18:38.964Z,56.091
2023-04-20T08:19:39.170Z,55.107
2023-04-20T08:20:39.417Z,55.210
2023-04-20T08:21:39.277Z,54.203
2023-04-20T08:22:39.383Z,54.426
2023-04-20T08:23:39.158Z,54.046
2023-04-20T08:24:39.411Z,52.959
2023-04-20T08:25:39.499Z,52.726
2023-04-20T08:26:39.478Z,52.171
2023-04-20T08:27:39.376Z,52.135
2023-04-20T08:29:39.105Z,53.510
2023-04-20T08:30:38.956Z,52.057
2023-04-20T08:31:39.009Z,52.473
2023-04-20T08:32:39.381Z,53.085
2023-04-20T08:33:38.448Z,52.515
2023-04-20T08:34:39.280Z,52.295
2023-04-20T08:36:39.237Z,51.397
2023-04-20T08:37:39.193Z,52.310
2023-04-20T08:38:38.988Z,52.803
2023-04-20T08:39:38.846Z,52.375
2023-04-20T08:41:38.585Z,53.138
2023-04-20T08:42:38.636Z,54.649
2023-04-20T08:43:38.422Z,52.946
2023-04-20T08:44:38.834Z,52.272
2023-04-20T08:45:39.222Z,51.500
2023-04-20T08:46:39.264Z,50.868
2023-04-20T08:47:39.735Z,51.904
2023-04-20T08:48:38.776Z,52.339
2023-04-20T08:49:38.717Z,52.331
2023-04-20T08:51:38.550Z,53.178
2023-04-20T08:52:39.448Z,52.021
2023-04-20T08:53:39.233Z,50.775
2023-04-20T08:54:55.693Z,52.272
2023-04-20T08:55:38.901Z,52.169
2023-04-20T08:56:38.918Z,52.062
2023-04-20T08:58:38.660Z,52.341
2023-04-20T08:59:38.548Z,52.011
2023-04-20T09:00:39.418Z,51.353
2023-04-20T09:01:39.404Z,51.317
2023-04-20T09:02:38.812Z,52.722
2023-04-20T09:03:39.515Z,51.620
2023-04-20T09:04:40.722Z,51.162
2023-04-20T09:05:39.301Z,50.415
2023-04-20T09:06:41.949Z,50.767
2023-04-20T09:08:38.896Z,50.657
2023-04-20T09:09:38.888Z,52.284
2023-04-20T09:10:38.707Z,51.713
2023-04-20T09:12:41.226Z,52.328
2023-04-20T09:14:39.390Z,52.911
2023-04-20T09:16:39.514Z,53.247
2023-04-20T09:17:39.048Z,52.232
2023-04-20T09:19:38.772Z,51.322
2023-04-20T09:20:38.579Z,52.328
2023-04-20T09:21:39.394Z,51.755
2023-04-20T09:22:39.220Z,51.183
2023-04-20T09:24:39.039Z,51.685
2023-04-20T09:26:38.925Z,52.265
2023-04-20T09:27:38.932Z,52.158
2023-04-20T09:28:38.783Z,54.283
2023-04-20T09:29:38.636Z,53.306
2023-04-20T09:30:38.444Z,53.781
2023-04-20T09:31:39.357Z,52.412
2023-04-20T09:32:38.572Z,52.511
2023-04-20T09:33:38.556Z,53.958
2023-04-20T09:34:39.373Z,53.157
2023-04-20T09:35:39.258Z,52.892
2023-04-20T09:36:38.943Z,54.513
2023-04-20T09:38:38.589Z,53.186
2023-04-20T09:39:39.522Z,52.516
2023-04-20T09:41:39.355Z,54.029
2023-04-20T09:42:39.134Z,54.246
2023-04-20T09:43:38.975Z,54.927
2023-04-20T09:44:39.076Z,54.718
2023-04-20T09:46:38.923Z,53.144
2023-04-20T09:47:38.917Z,54.044
2023-04-20T09:49:38.725Z,52.591
2023-04-20T09:52:39.416Z,54.534
2023-04-20T09:53:39.118Z,53.606
2023-04-20T09:54:39.293Z,53.060
2023-04-20T09:55:39.117Z,53.062
2023-04-20T09:57:38.784Z,53.409
2023-04-20T09:58:38.601Z,53.909
2023-04-20T09:59:39.332Z,53.291
2023-04-20T10:00:39.252Z,53.169
2023-04-20T10:01:39.204Z,52.885
2023-04-20T10:02:39.357Z,52.604
2023-04-20T10:03:38.825Z,52.371
2023-04-20T10:04:40.307Z,52.171
2023-04-20T10:05:39.320Z,52.646
2023-04-20T10:06:39.102Z,51.486
2023-04-20T10:08:38.933Z,51.225
2023-04-20T10:10:38.580Z,51.525
2023-04-20T10:11:52.996Z,51.271
2023-04-20T10:12:38.803Z,53.277
2023-04-20T10:13:38.647Z,52.301
2023-04-20T10:14:38.976Z,52.701
2023-04-20T10:15:38.873Z,53.297
2023-04-20T10:16:38.750Z,52.288
2023-04-20T10:17:39.004Z,53.533
2023-04-20T10:18:39.461Z,54.050
2023-04-20T10:19:38.884Z,55.322
2023-04-20T10:21:38.629Z,55.683
2023-04-20T10:22:38.492Z,55.332
2023-04-20T10:23:40.165Z,55.357
2023-04-20T10:24:39.441Z,54.903
2023-04-20T10:26:39.139Z,54.740
2023-04-20T10:27:38.879Z,54.325
2023-04-20T10:29:38.563Z,53.684
2023-04-20T10:30:39.499Z,54.466
2023-04-20T10:31:38.927Z,55.105
2023-04-20T10:32:38.951Z,55.267
2023-04-20T10:34:38.632Z,57.413
2023-04-20T10:35:39.346Z,57.275
2023-04-20T10:36:39.460Z,56.688
2023-04-20T10:37:39.209Z,57.180
2023-04-20T10:38:38.984Z,56.896
2023-04-20T10:40:38.653Z,57.441
2023-04-20T10:41:38.498Z,58.422
2023-04-20T10:42:39.293Z,58.765
2023-04-20T10:43:39.117Z,58.584
2023-04-20T10:44:38.888Z,59.154
2023-04-20T10:45:38.742Z,60.096
2023-04-20T10:46:39.498Z,59.135
2023-04-20T10:47:38.601Z,58.103
2023-04-20T10:48:38.824Z,58.302
2023-04-20T10:49:38.865Z,57.649
2023-04-20T10:50:38.679Z,57.516
2023-04-20T10:52:39.372Z,59.303
2023-04-20T10:53:39.195Z,58.717
2023-04-20T10:54:39.092Z,58.517
2023-04-20T10:55:38.870Z,58.614
2023-04-20T10:57:38.512Z,60.650
2023-04-20T10:58:39.252Z,59.732
2023-04-20T10:59:39.069Z,60.114
2023-04-20T11:02:39.327Z,59.930
2023-04-20T11:03:38.939Z,59.787
2023-04-20T11:04:39.121Z,59.442
2023-04-20T11:05:39.190Z,59.377
2023-04-20T11:06:38.901Z,60.157
2023-04-20T11:07:38.739Z,60.640
2023-04-20T11:08:38.777Z,60.367
2023-04-20T11:09:38.954Z,60.144
2023-04-20T11:10:38.713Z,60.760
2023-04-20T11:11:38.480Z,60.085
2023-04-20T11:12:39.266Z,60.131
2023-04-20T11:13:39.056Z,60.567
2023-04-20T11:15:38.719Z,60.518
2023-04-20T11:16:50.626Z,60.321
2023-04-20T11:17:38.580Z,59.690
2023-04-20T11:18:38.570Z,58.990
2023-04-20T11:19:38.487Z,58.307
2023-04-20T11:20:39.287Z,58.706
2023-04-20T11:21:38.621Z,58.723
2023-04-20T11:22:38.468Z,57.529
2023-04-20T11:23:38.571Z,57.518
2023-04-20T11:24:39.317Z,57.603
2023-04-20T11:25:39.062Z,59.129
2023-04-20T11:26:38.967Z,59.213
2023-04-20T11:27:39.099Z,58.294
2023-04-20T11:28:39.254Z,58.876
2023-04-20T11:29:38.809Z,60.024
2023-04-20T11:30:38.720Z,59.854
2023-04-20T11:31:39.313Z,60.123
2023-04-20T11:32:39.963Z,60.409
2023-04-20T11:33:38.672Z,59.845
2023-04-20T11:34:38.951Z,59.967
2023-04-20T11:35:38.560Z,58.733
2023-04-20T11:36:38.492Z,57.998
2023-04-20T11:37:39.428Z,57.737
2023-04-20T11:38:39.456Z,57.809
2023-04-20T11:39:38.479Z,57.825
2023-04-20T11:40:39.388Z,57.615
2023-04-20T11:41:39.497Z,58.187
2023-04-20T11:42:38.606Z,57.664
2023-04-20T11:43:39.081Z,56.066
2023-04-20T11:44:39.136Z,56.320
2023-04-20T11:45:39.260Z,57.237
2023-04-20T11:46:39.962Z,56.409
2023-04-20T11:47:39.152Z,55.288
2023-04-20T11:48:39.222Z,54.229
2023-04-20T11:49:39.314Z,54.250
2023-04-20T11:50:42.511Z,55.343
2023-04-20T11:51:38.651Z,55.376
2023-04-20T11:52:38.586Z,56.240
2023-04-20T11:53:39.394Z,56.438
2023-04-20T11:54:39.200Z,55.089
2023-04-20T11:55:39.055Z,57.582
2023-04-20T11:57:38.788Z,55.387
2023-04-20T11:58:38.767Z,55.635
2023-04-20T11:59:38.524Z,55.458
2023-04-20T12:00:39.414Z,55.507
2023-04-20T12:01:39.469Z,55.437
2023-04-20T12:02:38.882Z,54.281
2023-04-20T12:03:39.624Z,54.807
2023-04-20T12:04:39.095Z,55.610
2023-04-20T12:06:38.635Z,53.543
2023-04-20T12:07:38.516Z,54.201
2023-04-20T12:08:39.371Z,55.315
2023-04-20T12:09:39.177Z,55.217
2023-04-20T12:10:39.082Z,56.369
2023-04-20T12:11:39.327Z,57.569
2023-04-20T12:12:39.155Z,58.746
2023-04-20T12:13:39.107Z,59.007
2023-04-20T12:14:39.030Z,59.446
2023-04-20T12:17:39.476Z,60.754
2023-04-20T12:18:39.436Z,61.008
2023-04-20T12:19:39.143Z,59.925
2023-04-20T12:20:38.932Z,60.430
2023-04-20T12:23:39.391Z,61.575
2023-04-20T12:24:39.195Z,61.498
2023-04-20T12:25:39.091Z,61.809
2023-04-20T12:26:39.073Z,62.692
2023-04-20T12:27:38.955Z,62.448
2023-04-20T12:28:38.792Z,63.169
2023-04-20T12:29:38.989Z,63.316
2023-04-20T12:30:38.809Z,63.835
2023-04-20T12:31:38.994Z,64.203
2023-04-20T12:32:39.409Z,64.174
2023-04-20T12:34:39.706Z,64.596
2023-04-20T12:35:38.501Z,64.863
2023-04-20T12:36:39.419Z,65.019
2023-04-20T12:37:39.264Z,64.916
2023-04-20T12:39:38.873Z,64.901
2023-04-20T12:40:38.759Z,64.670
2023-04-20T12:41:38.511Z,64.922
2023-04-20T12:42:39.411Z,64.607
2023-04-20T12:43:39.185Z,64.375
2023-04-20T12:44:39.383Z,64.943
2023-04-20T12:45:39.253Z,65.674
2023-04-20T12:49:39.434Z,65.698
2023-04-20T12:50:39.243Z,66.078
2023-04-20T12:51:39.101Z,66.168
2023-04-20T12:52:38.960Z,65.695
2023-04-20T12:55:38.724Z,65.517
2023-04-20T12:56:39.191Z,66.013
2023-04-20T12:57:38.963Z,65.366
2023-04-20T12:58:38.857Z,65.113
2023-04-20T12:59:38.746Z,65.180
2023-04-20T13:01:38.588Z,64.848
2023-04-20T13:02:39.090Z,65.183
2023-04-20T13:03:38.858Z,65.580
2023-04-20T13:06:39.341Z,65.653
2023-04-20T13:07:39.164Z,65.410
2023-04-20T13:08:39.003Z,65.809
2023-04-20T13:11:38.694Z,65.956
2023-04-20T13:12:38.632Z,65.525
2023-04-20T13:13:38.495Z,65.405
2023-04-20T13:14:39.880Z,64.691
2023-04-20T13:17:39.260Z,66.679
2023-04-20T13:18:39.375Z,66.427
2023-04-20T13:19:39.217Z,66.379
2023-04-20T13:20:38.965Z,66.223
2023-04-20T13:22:50.653Z,66.190
2023-04-20T13:24:38.569Z,66.269
2023-04-20T13:25:39.370Z,65.832
2023-04-20T13:26:39.123Z,65.323
2023-04-20T13:27:38.886Z,65.447
2023-04-20T13:31:39.513Z,65.187
2023-04-20T13:32:40.395Z,65.386
2023-04-20T13:33:38.424Z,65.481
2023-04-20T13:34:39.572Z,65.052
2023-04-20T13:35:39.357Z,64.735
2023-04-20T13:37:40.748Z,64.533
2023-04-20T13:38:38.595Z,65.746
2023-04-20T13:39:38.602Z,66.028
2023-04-20T13:40:39.435Z,65.715
2023-04-20T13:41:39.202Z,65.820
2023-04-20T13:42:39.043Z,65.887
2023-04-20T13:43:40.251Z,65.496
2023-04-20T13:44:39.293Z,65.197
2023-04-20T13:47:39.009Z,65.397
2023-04-20T13:48:38.815Z,65.416
2023-04-20T13:49:38.580Z,65.056
2023-04-20T13:50:39.292Z,65.416
2023-04-20T13:51:39.053Z,65.803
2023-04-20T13:53:38.762Z,65.927
2023-04-20T13:54:38.704Z,65.489
2023-04-20T13:55:38.576Z,65.426
2023-04-20T13:56:39.429Z,65.147
2023-04-20T13:57:39.178Z,64.926
2023-04-20T13:58:39.086Z,65.006
2023-04-20T14:00:38.784Z,63.432
2023-04-20T14:01:38.877Z,62.845
2023-04-20T14:02:38.958Z,63.062
2023-04-20T14:03:39.532Z,62.872
2023-04-20T14:04:38.893Z,63.312
2023-04-20T14:05:39.031Z,63.059
2023-04-20T14:06:38.833Z,62.688
2023-04-20T14:09:39.319Z,63.825
2023-04-20T14:10:39.256Z,64.590
2023-04-20T14:11:39.002Z,64.468
2023-04-20T14:13:38.552Z,64.670
2023-04-20T14:14:39.626Z,64.235
2023-04-20T14:15:38.616Z,64.472
2023-04-20T14:16:38.922Z,64.108
2023-04-20T14:17:39.054Z,64.304
2023-04-20T14:18:39.147Z,64.756
2023-04-20T14:19:39.238Z,64.596
2023-04-20T14:20:39.363Z,64.153
2023-04-20T14:21:39.369Z,63.375
2023-04-20T14:22:39.372Z,64.014
2023-04-20T14:23:39.316Z,63.598
2023-04-20T14:25:39.160Z,63.423
2023-04-20T14:26:39.118Z,63.797
2023-04-20T14:27:39.057Z,64.138
2023-04-20T14:28:38.864Z,63.696
2023-04-20T14:30:38.895Z,63.757
2023-04-20T14:31:39.274Z,63.400
2023-04-20T14:32:39.627Z,63.617
2023-04-20T14:33:38.918Z,64.388
2023-04-20T14:34:39.107Z,64.573
2023-04-20T14:35:39.310Z,64.193
2023-04-20T14:36:39.151Z,64.138
2023-04-20T14:37:38.912Z,64.411
2023-04-20T14:38:38.672Z,64.586
2023-04-20T14:40:39.468Z,64.579
2023-04-20T14:41:39.526Z,64.371
2023-04-20T14:42:39.486Z,63.863
2023-04-20T14:43:39.339Z,63.986
2023-04-20T14:44:39.216Z,64.495
2023-04-20T14:45:39.100Z,64.951
2023-04-20T14:46:42.074Z,64.863
2023-04-20T14:47:38.908Z,64.514
2023-04-20T14:48:38.784Z,65.054
2023-04-20T14:49:38.621Z,65.033
2023-04-20T14:50:38.651Z,64.510
2023-04-20T14:51:38.647Z,64.689
2023-04-20T14:52:38.632Z,65.216
2023-04-20T14:53:38.618Z,65.447
2023-04-20T14:54:39.809Z,65.410
2023-04-20T14:55:38.840Z,65.494
2023-04-20T14:56:39.004Z,65.500
2023-04-20T14:57:39.006Z,65.693
2023-04-20T14:58:38.857Z,65.630
2023-04-20T14:59:38.762Z,65.479
2023-04-20T15:00:38.767Z,65.855
2023-04-20T15:01:40.040Z,65.443
2023-04-20T15:02:39.018Z,65.580
2023-04-20T15:03:39.933Z,65.407
2023-04-20T15:04:38.776Z,65.311
2023-04-20T15:05:39.536Z,65.693
2023-04-20T15:06:38.874Z,65.574
2023-04-20T15:08:38.750Z,65.580
2023-04-20T15:09:38.717Z,65.530
2023-04-20T15:10:39.700Z,65.447
2023-04-20T15:12:38.725Z,65.391
2023-04-20T15:13:38.500Z,64.924